createdAt,value
2018-11-12T00:00:08.257Z,0
2018-11-12T00:00:48.765Z,0
2018-11-12T00:01:29.109Z,0
2018-11-12T00:02:09.563Z,0
2018-11-12T00:02:49.968Z,0
2018-11-12T00:03:30.279Z,0
2018-11-12T00:04:10.865Z,0
2018-11-12T00:04:51.322Z,0
2018-11-12T00:05:31.644Z,0
2018-11-12T00:06:12.133Z,0
2018-11-12T00:06:52.515Z,0
2018-11-12T00:07:32.886Z,0
2018-11-12T00:08:13.599Z,0
2018-11-12T00:08:53.807Z,0
2018-11-12T00:09:34.323Z,0
2018-11-12T00:10:14.654Z,0
2018-11-12T00:10:55.054Z,0
2018-11-12T00:11:35.472Z,0
2018-11-12T00:12:15.851Z,0
2018-11-12T00:12:56.279Z,0
2018-11-12T00:13:36.767Z,0
2018-11-12T00:14:17.096Z,0
2018-11-12T00:16:58.687Z,0
2018-11-12T00:17:38.891Z,0
2018-11-12T00:18:19.336Z,0
2018-11-12T00:18:59.747Z,0
2018-11-12T00:19:40.139Z,0
2018-11-12T00:20:20.698Z,0
2018-11-12T00:21:01.060Z,0
2018-11-12T00:21:41.768Z,0
2018-11-12T00:22:22.162Z,0
2018-11-12T00:23:02.522Z,0
2018-11-12T00:23:42.949Z,0
2018-11-12T00:24:23.332Z,0
2018-11-12T00:25:03.743Z,0
2018-11-12T00:25:44.161Z,0
2018-11-12T00:26:24.768Z,0
2018-11-12T00:27:05.098Z,0
2018-11-12T00:27:45.510Z,0
2018-11-12T00:28:28.703Z,0
2018-11-12T00:29:09.156Z,0
2018-11-12T00:29:49.582Z,0
2018-11-12T00:30:29.977Z,0
2018-11-12T00:31:10.404Z,0
2018-11-12T00:31:50.817Z,0
2018-11-12T00:32:31.216Z,0
2018-11-12T00:33:11.599Z,0
2018-11-12T00:33:52.015Z,0
2018-11-12T00:34:32.544Z,0
2018-11-12T00:35:12.988Z,0
2018-11-12T00:35:53.389Z,0
2018-11-12T00:40:24.436Z,0
2018-11-12T00:41:05.215Z,0
2018-11-12T00:41:45.546Z,0
2018-11-12T00:42:25.956Z,0
2018-11-12T00:43:06.430Z,0
2018-11-12T00:43:46.803Z,0
2018-11-12T00:44:27.161Z,0
2018-11-12T00:45:07.557Z,0
2018-11-12T00:45:47.955Z,0
2018-11-12T00:46:28.395Z,0
2018-11-12T00:47:08.806Z,0
2018-11-12T00:47:49.129Z,0
2018-11-12T00:48:29.651Z,0
2018-11-12T00:49:10.010Z,0
2018-11-12T00:49:50.388Z,0
2018-11-12T00:50:30.834Z,0
2018-11-12T00:51:11.232Z,0
2018-11-12T00:51:51.701Z,0
2018-11-12T00:52:32.006Z,0
2018-11-12T00:53:12.453Z,0
2018-11-12T00:53:52.812Z,0
2018-11-12T00:54:33.223Z,0
2018-11-12T00:55:13.713Z,0
2018-11-12T00:55:54.182Z,0
2018-11-12T00:56:34.535Z,0
2018-11-12T00:57:14.918Z,0
2018-11-12T00:57:55.300Z,0
2018-11-12T00:58:35.882Z,0
2018-11-12T00:59:16.129Z,0
2018-11-12T00:59:56.500Z,0
2018-11-12T01:00:36.963Z,0
2018-11-12T01:01:17.818Z,0
2018-11-12T01:01:58.341Z,0
2018-11-12T01:02:38.677Z,0
2018-11-12T01:03:19.189Z,0
2018-11-12T01:04:00.522Z,0
2018-11-12T01:04:40.997Z,0
2018-11-12T01:05:21.243Z,0
2018-11-12T01:06:02.186Z,0
2018-11-12T01:06:42.409Z,0
2018-11-12T01:07:22.866Z,0
2018-11-12T01:08:03.347Z,0
2018-11-12T01:10:40.257Z,0
2018-11-12T01:14:45.254Z,0
2018-11-12T01:15:25.893Z,0
2018-11-12T01:16:06.369Z,0
2018-11-12T01:16:46.739Z,0
2018-11-12T01:17:27.120Z,0
2018-11-12T01:18:07.551Z,0
2018-11-12T01:18:47.979Z,0
2018-11-12T01:19:28.333Z,0
2018-11-12T01:20:08.975Z,0
2018-11-12T01:20:49.218Z,0
2018-11-12T01:21:29.709Z,0
2018-11-12T01:22:10.028Z,0
2018-11-12T01:22:50.464Z,0
2018-11-12T01:23:30.875Z,0
2018-11-12T01:24:11.442Z,0
2018-11-12T01:24:51.790Z,0
2018-11-12T01:25:32.285Z,0
2018-11-12T01:26:12.751Z,0
2018-11-12T01:26:53.138Z,0
2018-11-12T01:27:33.616Z,0
2018-11-12T01:28:14.133Z,0
2018-11-12T01:28:54.448Z,0
2018-11-12T01:29:34.856Z,0
2018-11-12T01:30:15.340Z,0
2018-11-12T01:30:55.797Z,0
2018-11-12T01:31:36.300Z,0
2018-11-12T01:32:16.676Z,0
2018-11-12T01:32:57.087Z,0
2018-11-12T01:33:37.496Z,0
2018-11-12T01:34:17.995Z,0
2018-11-12T01:34:58.418Z,0
2018-11-12T01:35:38.686Z,0
2018-11-12T01:36:19.113Z,0
2018-11-12T01:36:59.583Z,0
2018-11-12T01:37:39.920Z,0
2018-11-12T01:38:20.365Z,0
2018-11-12T01:39:00.758Z,0
2018-11-12T01:39:41.163Z,0
2018-11-12T01:40:21.699Z,0
2018-11-12T01:41:02.064Z,0
2018-11-12T01:41:42.459Z,0
2018-11-12T01:42:22.858Z,0
2018-11-12T01:43:03.212Z,0
2018-11-12T01:43:43.637Z,0
2018-11-12T01:44:24.026Z,0
2018-11-12T01:45:04.498Z,0
2018-11-12T01:45:44.978Z,0
2018-11-12T01:46:25.348Z,0
2018-11-12T01:47:05.812Z,0
2018-11-12T01:47:46.238Z,0
2018-11-12T01:48:26.646Z,0
2018-11-12T01:49:07.056Z,0
2018-11-12T01:49:47.427Z,0
2018-11-12T01:50:27.841Z,0
2018-11-12T01:51:08.415Z,0
2018-11-12T01:51:48.629Z,0
2018-11-12T01:52:29.139Z,0
2018-11-12T01:53:09.641Z,0
2018-11-12T01:53:50.230Z,0
2018-11-12T01:54:30.518Z,0
2018-11-12T01:55:10.989Z,0
2018-11-12T01:55:51.396Z,0
2018-11-12T01:56:31.761Z,0
2018-11-12T01:57:12.222Z,0
2018-11-12T01:57:52.834Z,0
2018-11-12T01:58:33.124Z,0
2018-11-12T01:59:13.735Z,0
2018-11-12T01:59:54.568Z,0
2018-11-12T02:00:35.259Z,0
2018-11-12T02:01:15.596Z,0
2018-11-12T02:01:55.977Z,0
2018-11-12T02:02:36.420Z,0
2018-11-12T02:03:16.859Z,0
2018-11-12T02:03:57.428Z,0
2018-11-12T02:04:37.974Z,0
2018-11-12T02:05:18.468Z,0
2018-11-12T02:05:58.744Z,0
2018-11-12T02:06:39.371Z,0
2018-11-12T02:07:19.664Z,0
2018-11-12T02:08:00.066Z,0
2018-11-12T02:08:40.661Z,0
2018-11-12T02:09:20.885Z,0
2018-11-12T02:10:01.410Z,0
2018-11-12T02:10:41.862Z,0
2018-11-12T02:11:22.448Z,0
2018-11-12T02:12:02.880Z,0
2018-11-12T02:12:43.210Z,0
2018-11-12T02:13:23.863Z,0
2018-11-12T02:14:04.441Z,0
2018-11-12T02:14:44.807Z,0
2018-11-12T02:15:25.039Z,0
2018-11-12T02:16:05.472Z,0
2018-11-12T02:16:45.889Z,0
2018-11-12T02:17:26.265Z,0
2018-11-12T02:18:06.667Z,0
2018-11-12T02:18:47.170Z,0
2018-11-12T02:19:27.547Z,0
2018-11-12T02:20:08.143Z,0
2018-11-12T02:20:48.991Z,0
2018-11-12T02:21:29.267Z,0
2018-11-12T02:22:09.652Z,0
2018-11-12T02:22:50.096Z,0
2018-11-12T02:23:30.525Z,0
2018-11-12T02:24:10.892Z,0
2018-11-12T02:24:51.338Z,0
2018-11-12T02:25:31.786Z,0
2018-11-12T02:26:12.099Z,0
2018-11-12T02:26:52.521Z,0
2018-11-12T02:27:32.926Z,0
2018-11-12T02:28:13.341Z,0
2018-11-12T02:32:30.261Z,0
2018-11-12T02:33:10.791Z,0
2018-11-12T02:33:51.068Z,0
2018-11-12T02:34:31.702Z,0
2018-11-12T02:35:12.063Z,0
2018-11-12T02:35:52.512Z,0
2018-11-12T02:36:33.039Z,0
2018-11-12T02:37:13.365Z,0
2018-11-12T02:37:53.905Z,0
2018-11-12T02:38:34.373Z,0
2018-11-12T02:39:14.934Z,0
2018-11-12T02:39:55.124Z,0
2018-11-12T02:40:35.459Z,0
2018-11-12T02:41:15.902Z,0
2018-11-12T02:41:56.384Z,0
2018-11-12T02:42:36.730Z,0
2018-11-12T02:43:17.126Z,0
2018-11-12T02:43:57.581Z,0
2018-11-12T02:44:37.965Z,0
2018-11-12T02:45:18.359Z,0
2018-11-12T02:45:58.823Z,0
2018-11-12T02:46:39.163Z,0
2018-11-12T02:47:19.599Z,0
2018-11-12T02:48:00.007Z,0
2018-11-12T02:48:40.488Z,0
2018-11-12T02:49:20.910Z,0
2018-11-12T02:50:01.291Z,0
2018-11-12T02:50:41.750Z,0
2018-11-12T02:51:22.109Z,0
2018-11-12T02:52:02.585Z,0
2018-11-12T02:52:43.028Z,0
2018-11-12T02:53:23.396Z,0
2018-11-12T02:54:03.764Z,0
2018-11-12T02:54:44.169Z,0
2018-11-12T02:55:24.962Z,0
2018-11-12T02:56:05.246Z,0
2018-11-12T02:56:45.533Z,0
2018-11-12T02:57:26.281Z,0
2018-11-12T02:58:06.529Z,0
2018-11-12T02:58:46.876Z,0
2018-11-12T02:59:27.363Z,0
2018-11-12T03:00:07.742Z,0
2018-11-12T03:00:48.173Z,0
2018-11-12T03:01:28.576Z,0
2018-11-12T03:02:09.004Z,0
2018-11-12T03:02:49.355Z,0
2018-11-12T03:03:29.735Z,0
2018-11-12T03:04:10.146Z,0
2018-11-12T03:04:50.564Z,0
2018-11-12T03:05:30.933Z,0
2018-11-12T03:06:11.396Z,0
2018-11-12T03:06:51.758Z,0
2018-11-12T03:07:32.234Z,0
2018-11-12T03:08:12.533Z,0
2018-11-12T03:08:52.972Z,0
2018-11-12T03:09:33.376Z,0
2018-11-12T03:10:13.767Z,0
2018-11-12T03:10:54.178Z,0
2018-11-12T03:11:34.611Z,0
2018-11-12T03:12:15.029Z,0
2018-11-12T03:12:55.439Z,0
2018-11-12T03:13:35.868Z,0
2018-11-12T03:14:16.286Z,0
2018-11-12T03:14:56.776Z,0
2018-11-12T03:17:40.348Z,0
2018-11-12T03:18:19.792Z,0
2018-11-12T03:19:00.120Z,0
2018-11-12T03:19:40.529Z,0
2018-11-12T03:20:20.965Z,0
2018-11-12T03:21:01.390Z,0
2018-11-12T03:21:41.760Z,0
2018-11-12T03:22:22.222Z,0
2018-11-12T03:23:02.582Z,0
2018-11-12T03:23:42.964Z,0
2018-11-12T03:24:23.364Z,0
2018-11-12T03:25:03.766Z,0
2018-11-12T03:25:44.169Z,0
2018-11-12T03:26:24.611Z,0
2018-11-12T03:27:04.990Z,0
2018-11-12T03:27:45.502Z,0
2018-11-12T03:28:25.866Z,0
2018-11-12T03:29:06.218Z,0
2018-11-12T03:29:46.625Z,0
2018-11-12T03:30:27.054Z,0
2018-11-12T03:31:07.490Z,0
2018-11-12T03:31:47.907Z,0
2018-11-12T03:32:28.321Z,0
2018-11-12T03:33:08.740Z,0
2018-11-12T03:45:04.394Z,0
2018-11-12T03:45:44.523Z,0
2018-11-12T03:46:24.898Z,0
2018-11-12T03:47:05.281Z,0
2018-11-12T03:47:45.668Z,0
2018-11-12T03:48:26.097Z,0
2018-11-12T03:49:06.509Z,0
2018-11-12T03:51:34.739Z,0
2018-11-12T03:52:15.087Z,0
2018-11-12T03:52:55.478Z,0
2018-11-12T03:53:35.885Z,0
2018-11-12T03:54:16.295Z,0
2018-11-12T03:54:56.685Z,0
2018-11-12T03:55:37.117Z,0
2018-11-12T03:56:17.512Z,0
2018-11-12T03:58:50.469Z,0
2018-11-12T03:59:30.862Z,0
2018-11-12T04:00:11.267Z,0
2018-11-12T04:00:51.659Z,0
2018-11-12T04:01:32.032Z,0
2018-11-12T04:02:12.431Z,0
2018-11-12T04:02:52.818Z,0
2018-11-12T04:03:33.194Z,0
2018-11-12T04:04:13.647Z,0
2018-11-12T04:04:54.049Z,0
2018-11-12T04:05:34.508Z,0
2018-11-12T04:06:14.902Z,0
2018-11-12T04:06:55.274Z,0
2018-11-12T04:07:35.686Z,0
2018-11-12T04:08:16.086Z,0
2018-11-12T04:08:56.507Z,0
2018-11-12T04:09:36.891Z,0
2018-11-12T04:10:17.314Z,0
2018-11-12T04:10:57.704Z,0
2018-11-12T04:11:38.084Z,0
2018-11-12T04:12:18.466Z,0
2018-11-12T04:12:58.860Z,0
2018-11-12T04:13:39.273Z,0
2018-11-12T04:14:19.672Z,0
2018-11-12T04:15:00.086Z,0
2018-11-12T04:15:40.495Z,0
2018-11-12T04:16:20.877Z,0
2018-11-12T04:17:01.288Z,0
2018-11-12T04:17:41.645Z,0
2018-11-12T04:19:57.144Z,0
2018-11-12T04:20:37.501Z,0
2018-11-12T04:21:17.898Z,0
2018-11-12T04:21:58.313Z,0
2018-11-12T04:22:38.759Z,0
2018-11-12T04:23:19.212Z,0
2018-11-12T04:23:59.547Z,0
2018-11-12T04:24:39.960Z,0
2018-11-12T04:25:20.445Z,0
2018-11-12T04:26:00.835Z,0
2018-11-12T04:28:29.058Z,0
2018-11-12T05:06:28.920Z,0
2018-11-12T05:07:08.904Z,0
2018-11-12T05:07:49.287Z,0
2018-11-12T05:08:29.740Z,0
2018-11-12T05:09:10.090Z,0
2018-11-12T05:09:50.505Z,0
2018-11-12T05:10:30.829Z,0
2018-11-12T05:11:11.218Z,0
2018-11-12T05:11:51.644Z,0
2018-11-12T05:12:32.057Z,0
2018-11-12T05:13:12.518Z,0
2018-11-12T05:13:52.895Z,0
2018-11-12T05:14:33.393Z,0
2018-11-12T05:15:13.764Z,0
2018-11-12T05:15:54.561Z,0
2018-11-12T05:16:35.044Z,0
2018-11-12T05:17:15.419Z,0
2018-11-12T05:17:55.831Z,0
2018-11-12T05:18:36.223Z,0
2018-11-12T05:19:16.634Z,0
2018-11-12T05:19:56.985Z,0
2018-11-12T05:20:37.422Z,0
2018-11-12T05:21:17.812Z,0
2018-11-12T05:21:58.241Z,0
2018-11-12T05:22:38.643Z,0
2018-11-12T05:23:19.105Z,0
2018-11-12T05:23:59.464Z,0
2018-11-12T05:24:39.911Z,0
2018-11-12T05:25:20.268Z,0
2018-11-12T05:26:00.732Z,0
2018-11-12T05:26:41.181Z,0
2018-11-12T05:27:21.596Z,0
2018-11-12T05:28:02.054Z,0
2018-11-12T05:28:42.451Z,0
2018-11-12T05:29:22.968Z,0
2018-11-12T05:30:03.442Z,0
2018-11-12T05:30:43.863Z,0
2018-11-12T05:31:24.275Z,0
2018-11-12T05:32:04.723Z,0
2018-11-12T05:32:45.171Z,0
2018-11-12T05:33:25.585Z,0
2018-11-12T05:34:05.996Z,0
2018-11-12T05:34:46.366Z,0
2018-11-12T05:35:27.120Z,0
2018-11-12T05:36:07.470Z,0
2018-11-12T05:36:47.965Z,0
2018-11-12T05:37:28.653Z,0
2018-11-12T05:38:09.052Z,0
2018-11-12T05:38:49.429Z,0
2018-11-12T05:39:29.848Z,0
2018-11-12T05:40:10.248Z,0
2018-11-12T05:40:50.678Z,0
2018-11-12T05:41:31.032Z,0
2018-11-12T05:42:11.465Z,0
2018-11-12T05:42:51.865Z,0
2018-11-12T05:43:32.287Z,0
2018-11-12T05:44:12.659Z,0
2018-11-12T05:44:53.172Z,0
2018-11-12T05:45:33.514Z,0
2018-11-12T05:46:13.979Z,0
2018-11-12T05:46:54.415Z,0
2018-11-12T05:53:51.579Z,0
2018-11-12T05:54:31.907Z,0
2018-11-12T05:55:12.323Z,0
2018-11-12T05:55:52.750Z,0
2018-11-12T05:56:33.179Z,0
2018-11-12T05:57:13.697Z,0
2018-11-12T05:57:54.016Z,0
2018-11-12T05:58:34.522Z,0
2018-11-12T05:59:15.015Z,0
2018-11-12T05:59:55.429Z,0
2018-11-12T06:00:36.454Z,0
2018-11-12T06:01:16.866Z,0
2018-11-12T06:01:57.322Z,0
2018-11-12T06:02:37.721Z,0
2018-11-12T06:03:18.192Z,0
2018-11-12T06:03:58.563Z,0
2018-11-12T06:04:39.050Z,0
2018-11-12T06:05:19.364Z,0
2018-11-12T06:06:00.826Z,0
2018-11-12T06:06:40.941Z,0
2018-11-12T06:07:21.524Z,0
2018-11-12T06:08:01.834Z,0
2018-11-12T06:08:42.388Z,0
2018-11-12T06:09:22.718Z,0
2018-11-12T06:10:03.306Z,0
2018-11-12T06:10:43.718Z,0
2018-11-12T06:11:24.184Z,0
2018-11-12T06:12:04.665Z,0
2018-11-12T06:12:45.004Z,0
2018-11-12T06:13:25.487Z,0
2018-11-12T06:14:06.051Z,0
2018-11-12T06:14:46.416Z,0
2018-11-12T06:15:26.836Z,0
2018-11-12T06:16:07.248Z,0
2018-11-12T06:16:48.283Z,0
2018-11-12T06:17:28.683Z,0
2018-11-12T06:18:09.246Z,0
2018-11-12T06:18:49.637Z,0
2018-11-12T06:19:30.064Z,0
2018-11-12T06:20:10.506Z,0
2018-11-12T06:20:50.819Z,0
2018-11-12T06:21:31.246Z,0
2018-11-12T06:22:11.755Z,0
2018-11-12T06:22:52.255Z,0
2018-11-12T06:23:32.654Z,0
2018-11-12T06:24:14.004Z,0
2018-11-12T06:24:53.868Z,0
2018-11-12T06:25:35.685Z,0
2018-11-12T06:26:20.532Z,0
2018-11-12T06:27:10.237Z,0
2018-11-12T06:27:53.796Z,0
2018-11-12T06:28:34.670Z,0
2018-11-12T06:29:15.093Z,0
2018-11-12T06:29:55.718Z,0
2018-11-12T06:30:36.116Z,0
2018-11-12T06:31:16.946Z,0
2018-11-12T06:31:57.213Z,0
2018-11-12T06:32:37.744Z,0
2018-11-12T06:33:18.240Z,0
2018-11-12T06:34:00.780Z,0
2018-11-12T06:34:44.794Z,0
2018-11-12T06:35:25.579Z,0
2018-11-12T06:36:06.011Z,0
2018-11-12T06:36:47.902Z,0
2018-11-12T06:37:28.247Z,0
2018-11-12T06:38:09.854Z,0
2018-11-12T06:38:53.740Z,0
2018-11-12T06:39:38.721Z,0
2018-11-12T06:40:22.338Z,0
2018-11-12T06:41:03.324Z,0
2018-11-12T06:41:43.954Z,0
2018-11-12T06:42:29.804Z,0
2018-11-12T06:43:10.002Z,0
2018-11-12T06:43:53.590Z,0
2018-11-12T06:44:38.019Z,0
2018-11-12T06:51:40.783Z,0
2018-11-12T06:52:34.702Z,0
2018-11-12T06:53:29.736Z,0
2018-11-12T06:54:24.201Z,0
2018-11-12T06:55:21.336Z,0
2018-11-12T06:56:14.693Z,5
2018-11-12T06:57:09.426Z,5
2018-11-12T06:58:03.476Z,5
2018-11-12T06:58:58.551Z,5
2018-11-12T06:59:51.165Z,5
2018-11-12T07:00:45.546Z,5
2018-11-12T07:05:45.095Z,0
2018-11-12T07:06:53.844Z,0
2018-11-12T07:07:55.180Z,0
2018-11-12T07:08:52.319Z,0
2018-11-12T07:09:53.947Z,5
2018-11-12T07:10:56.039Z,5
2018-11-12T07:11:59.174Z,5
2018-11-12T07:13:02.124Z,5
2018-11-12T07:14:28.372Z,5
2018-11-12T07:15:42.518Z,5
2018-11-12T07:16:50.772Z,5
2018-11-12T07:17:50.682Z,5
2018-11-12T07:18:49.895Z,5
2018-11-12T07:19:52.420Z,5
2018-11-12T07:20:49.845Z,5
2018-11-12T07:21:49.081Z,5
2018-11-12T07:22:46.027Z,10
2018-11-12T07:23:43.686Z,10
2018-11-12T07:24:48.274Z,10
2018-11-12T07:25:51.516Z,10
2018-11-12T07:26:52.274Z,10
2018-11-12T07:28:18.773Z,10
2018-11-12T07:29:35.559Z,10
2018-11-12T07:35:16.326Z,10
2018-11-12T07:36:10.836Z,10
2018-11-12T07:37:03.976Z,10
2018-11-12T07:37:56.838Z,10
2018-11-12T07:38:55.597Z,10
2018-11-12T07:39:55.174Z,15
2018-11-12T07:41:00.825Z,10
2018-11-12T07:41:59.701Z,15
2018-11-12T07:43:01.593Z,15
2018-11-12T07:43:58.721Z,10
2018-11-12T07:44:59.682Z,10
2018-11-12T07:46:03.120Z,10
2018-11-12T07:50:25.276Z,5
2018-11-12T07:51:06.182Z,5
2018-11-12T07:51:47.304Z,5
2018-11-12T07:52:27.400Z,5
2018-11-12T07:53:08.069Z,5
2018-11-12T07:53:48.607Z,5
2018-11-12T07:54:29.129Z,5
2018-11-12T07:55:10.148Z,5
2018-11-12T07:55:50.515Z,5
2018-11-12T07:56:31.130Z,5
2018-11-12T07:57:11.711Z,5
2018-11-12T07:57:52.248Z,5
2018-11-12T07:58:32.704Z,5
2018-11-12T07:59:13.190Z,5
2018-11-12T07:59:53.619Z,5
2018-11-12T08:00:34.092Z,5
2018-11-12T08:01:15.154Z,5
2018-11-12T08:01:55.843Z,5
2018-11-12T08:02:36.340Z,5
2018-11-12T08:03:18.780Z,5
2018-11-12T08:03:58.795Z,5
2018-11-12T08:04:39.429Z,5
2018-11-12T08:05:19.718Z,5
2018-11-12T08:06:00.500Z,5
2018-11-12T08:06:41.047Z,5
2018-11-12T08:07:21.517Z,5
2018-11-12T08:08:03.450Z,5
2018-11-12T08:08:44.772Z,5
2018-11-12T08:09:26.369Z,5
2018-11-12T08:10:06.116Z,5
2018-11-12T08:10:46.991Z,5
2018-11-12T08:11:27.682Z,5
2018-11-12T08:12:08.319Z,5
2018-11-12T08:12:49.230Z,5
2018-11-12T08:13:29.667Z,5
2018-11-12T08:14:10.456Z,10
2018-11-12T08:14:51.085Z,10
2018-11-12T08:15:31.777Z,15
2018-11-12T08:16:12.235Z,10
2018-11-12T08:16:52.726Z,10
2018-11-12T08:17:33.445Z,10
2018-11-12T08:18:14.729Z,10
2018-11-12T08:18:55.736Z,10
2018-11-12T08:19:36.151Z,15
2018-11-12T08:20:16.873Z,15
2018-11-12T08:20:57.360Z,20
2018-11-12T08:21:37.848Z,15
2018-11-12T08:22:19.381Z,15
2018-11-12T08:22:59.877Z,15
2018-11-12T08:23:40.202Z,15
2018-11-12T08:24:20.823Z,15
2018-11-12T08:25:01.407Z,15
2018-11-12T08:25:42.033Z,15
2018-11-12T08:26:22.445Z,20
2018-11-12T08:27:09.275Z,20
2018-11-12T08:27:48.417Z,20
2018-11-12T08:28:29.831Z,20
2018-11-12T08:29:09.556Z,20
2018-11-12T08:29:51.638Z,20
2018-11-12T08:30:31.479Z,20
2018-11-12T08:31:14.026Z,20
2018-11-12T08:32:04.943Z,20
2018-11-12T08:32:51.022Z,20
2018-11-12T08:33:30.248Z,25
2018-11-12T08:34:11.229Z,35
2018-11-12T08:34:52.108Z,30
2018-11-12T08:35:32.856Z,35
2018-11-12T08:36:13.479Z,40
2018-11-12T08:36:54.082Z,30
2018-11-12T08:37:34.337Z,35
2018-11-12T08:38:15.480Z,35
2018-11-12T08:38:55.855Z,40
2018-11-12T08:39:36.256Z,40
2018-11-12T08:40:16.877Z,40
2018-11-12T08:40:58.348Z,40
2018-11-12T08:41:38.325Z,40
2018-11-12T08:42:19.422Z,45
2018-11-12T08:43:00.817Z,45
2018-11-12T08:43:41.286Z,45
2018-11-12T08:44:20.839Z,45
2018-11-12T08:45:01.424Z,45
2018-11-12T08:45:42.253Z,45
2018-11-12T08:46:23.304Z,45
2018-11-12T08:47:03.929Z,40
2018-11-12T08:47:44.411Z,45
2018-11-12T08:48:25.182Z,45
2018-11-12T08:49:05.811Z,40
2018-11-12T08:49:46.266Z,35
2018-11-12T08:50:26.556Z,30
2018-11-12T08:51:07.084Z,30
2018-11-12T08:51:47.597Z,25
2018-11-12T08:52:28.040Z,25
2018-11-12T08:53:08.930Z,35
2018-11-12T08:53:49.596Z,25
2018-11-12T08:54:30.499Z,25
2018-11-12T08:55:10.919Z,25
2018-11-12T08:55:52.316Z,30
2018-11-12T08:56:33.308Z,30
2018-11-12T08:57:13.812Z,25
2018-11-12T08:57:53.886Z,30
2018-11-12T08:58:34.344Z,25
2018-11-12T08:59:14.947Z,25
2018-11-12T08:59:55.296Z,25
2018-11-12T09:00:35.875Z,25
2018-11-12T09:01:16.579Z,30
2018-11-12T09:01:56.909Z,30
2018-11-12T09:02:37.209Z,25
2018-11-12T09:03:17.698Z,25
2018-11-12T09:03:58.092Z,35
2018-11-12T09:04:38.706Z,35
2018-11-12T09:05:19.107Z,40
2018-11-12T09:05:59.536Z,30
2018-11-12T09:06:39.824Z,40
2018-11-12T09:07:20.661Z,40
2018-11-12T09:08:01.023Z,40
2018-11-12T09:08:41.453Z,40
2018-11-12T09:09:21.869Z,40
2018-11-12T09:10:02.277Z,35
2018-11-12T09:10:42.813Z,30
2018-11-12T09:11:23.310Z,35
2018-11-12T09:12:03.695Z,40
2018-11-12T09:12:44.466Z,45
2018-11-12T09:13:24.922Z,35
2018-11-12T09:14:05.298Z,30
2018-11-12T09:14:45.744Z,30
2018-11-12T09:15:26.490Z,30
2018-11-12T09:16:06.953Z,25
2018-11-12T09:16:47.415Z,40
2018-11-12T09:17:28.886Z,35
2018-11-12T09:18:08.499Z,25
2018-11-12T09:18:48.944Z,30
2018-11-12T09:19:29.411Z,30
2018-11-12T09:20:09.925Z,35
2018-11-12T09:20:50.326Z,40
2018-11-12T09:21:30.777Z,40
2018-11-12T09:22:11.150Z,35
2018-11-12T09:22:51.985Z,40
2018-11-12T09:23:32.454Z,40
2018-11-12T09:24:13.847Z,45
2018-11-12T09:24:53.325Z,45
2018-11-12T09:25:33.744Z,30
2018-11-12T09:26:14.211Z,30
2018-11-12T09:26:54.802Z,40
2018-11-12T09:27:35.150Z,40
2018-11-12T09:28:15.629Z,45
2018-11-12T09:28:56.037Z,45
2018-11-12T09:29:36.630Z,40
2018-11-12T09:30:16.847Z,40
2018-11-12T09:30:58.731Z,40
2018-11-12T09:31:37.706Z,40
2018-11-12T09:32:18.190Z,40
2018-11-12T09:32:58.617Z,40
2018-11-12T09:33:39.067Z,40
2018-11-12T09:34:19.591Z,45
2018-11-12T09:34:59.906Z,45
2018-11-12T09:35:40.404Z,45
2018-11-12T09:37:01.182Z,40
2018-11-12T09:37:41.647Z,40
2018-11-12T09:38:22.293Z,45
2018-11-12T09:39:02.537Z,45
2018-11-12T09:39:42.974Z,45
2018-11-12T09:40:23.484Z,45
2018-11-12T09:41:03.824Z,45
2018-11-12T09:41:44.322Z,45
2018-11-12T09:42:24.713Z,50
2018-11-12T09:43:05.154Z,50
2018-11-12T09:43:45.487Z,50
2018-11-12T09:44:26.044Z,45
2018-11-12T09:45:06.401Z,50
2018-11-12T09:45:46.846Z,45
2018-11-12T09:46:27.356Z,40
2018-11-12T09:47:08.055Z,45
2018-11-12T09:47:48.643Z,40
2018-11-12T09:48:29.004Z,40
2018-11-12T09:49:09.679Z,45
2018-11-12T09:49:50.238Z,45
2018-11-12T09:50:30.746Z,45
2018-11-12T09:51:11.347Z,50
2018-11-12T09:51:51.867Z,50
2018-11-12T09:52:32.413Z,50
2018-11-12T09:53:13.758Z,45
2018-11-12T09:53:53.827Z,50
2018-11-12T09:54:34.136Z,50
2018-11-12T09:55:14.876Z,50
2018-11-12T09:55:55.806Z,50
2018-11-12T09:56:36.792Z,50
2018-11-12T09:57:16.783Z,45
2018-11-12T09:57:57.164Z,45
2018-11-12T09:58:37.656Z,45
2018-11-12T09:59:18.113Z,35
2018-11-12T09:59:58.645Z,45
2018-11-12T10:00:39.195Z,45
2018-11-12T10:01:20.078Z,45
2018-11-12T10:02:00.461Z,45
2018-11-12T10:02:41.725Z,40
2018-11-12T10:03:22.443Z,35
2018-11-12T10:04:02.379Z,40
2018-11-12T10:04:43.713Z,35
2018-11-12T10:05:23.895Z,35
2018-11-12T10:06:04.151Z,35
2018-11-12T10:06:45.251Z,35
2018-11-12T10:07:26.035Z,40
2018-11-12T10:08:06.911Z,45
2018-11-12T10:08:47.463Z,45
2018-11-12T10:09:27.831Z,50
2018-11-12T10:10:10.079Z,45
2018-11-12T10:10:49.669Z,45
2018-11-12T10:11:31.779Z,40
2018-11-12T10:12:12.113Z,45
2018-11-12T10:12:52.085Z,45
2018-11-12T10:13:31.789Z,45
2018-11-12T10:14:12.081Z,45
2018-11-12T10:14:52.897Z,45
2018-11-12T10:15:35.921Z,45
2018-11-12T10:16:15.086Z,45
2018-11-12T10:16:55.664Z,40
2018-11-12T10:17:36.546Z,40
2018-11-12T10:18:13.857Z,40
2018-11-12T10:18:55.330Z,40
2018-11-12T10:19:35.163Z,40
2018-11-12T10:20:15.651Z,35
2018-11-12T10:20:56.378Z,35
2018-11-12T10:21:37.789Z,35
2018-11-12T10:22:18.257Z,35
2018-11-12T10:22:59.353Z,35
2018-11-12T10:23:40.338Z,35
2018-11-12T10:24:19.864Z,30
2018-11-12T10:25:00.758Z,30
2018-11-12T10:25:41.893Z,30
2018-11-12T10:26:21.629Z,30
2018-11-12T10:27:02.158Z,30
2018-11-12T10:27:42.608Z,35
2018-11-12T10:28:23.105Z,30
2018-11-12T10:29:03.745Z,30
2018-11-12T10:29:44.261Z,30
2018-11-12T11:07:09.790Z,25
2018-11-12T11:07:56.628Z,30
2018-11-12T11:08:45.454Z,35
2018-11-12T11:15:55.000Z,35
2018-11-12T11:16:35.543Z,30
2018-11-12T11:17:16.685Z,35
2018-11-12T11:17:57.441Z,35
2018-11-12T11:18:38.285Z,35
2018-11-12T11:19:19.101Z,35
2018-11-12T11:20:01.438Z,30
2018-11-12T11:20:41.626Z,30
2018-11-12T11:21:22.346Z,30
2018-11-12T11:22:02.893Z,30
2018-11-12T11:22:43.303Z,35
2018-11-12T11:23:23.773Z,30
2018-11-12T11:24:04.230Z,30
2018-11-12T11:24:44.748Z,30
2018-11-12T11:25:25.425Z,30
2018-11-12T11:26:05.916Z,30
2018-11-12T11:26:46.753Z,35
2018-11-12T11:27:27.300Z,40
2018-11-12T11:28:07.828Z,40
2018-11-12T11:28:48.822Z,45
2018-11-12T11:29:29.161Z,30
2018-11-12T11:30:10.440Z,30
2018-11-12T11:30:50.717Z,35
2018-11-12T11:31:31.396Z,30
2018-11-12T11:32:11.905Z,30
2018-11-12T11:32:53.176Z,30
2018-11-12T11:33:33.940Z,30
2018-11-12T11:34:14.968Z,35
2018-11-12T11:34:55.285Z,45
2018-11-12T11:35:36.090Z,30
2018-11-12T11:36:16.639Z,35
2018-11-12T11:36:58.131Z,40
2018-11-12T11:37:39.493Z,45
2018-11-12T11:38:19.480Z,45
2018-11-12T11:39:00.079Z,45
2018-11-12T11:39:40.879Z,45
2018-11-12T11:40:21.881Z,45
2018-11-12T11:41:02.358Z,30
2018-11-12T11:41:43.013Z,30
2018-11-12T11:42:24.477Z,30
2018-11-12T11:43:04.536Z,30
2018-11-12T11:43:45.388Z,45
2018-11-12T11:44:27.791Z,30
2018-11-12T11:45:08.387Z,30
2018-11-12T11:45:50.219Z,35
2018-11-12T11:46:30.990Z,30
2018-11-12T11:47:12.279Z,25
2018-11-12T11:47:54.664Z,25
2018-11-12T11:48:36.007Z,30
2018-11-12T11:49:16.982Z,25
2018-11-12T11:49:57.442Z,25
2018-11-12T11:50:39.490Z,25
2018-11-12T11:51:19.762Z,25
2018-11-12T11:52:01.666Z,25
2018-11-12T11:52:42.004Z,25
2018-11-12T11:53:22.218Z,20
2018-11-12T11:54:03.513Z,20
2018-11-12T11:54:43.645Z,15
2018-11-12T11:55:25.297Z,15
2018-11-12T11:56:07.065Z,15
2018-11-12T11:56:48.492Z,15
2018-11-12T11:57:30.159Z,20
2018-11-12T11:58:09.867Z,20
2018-11-12T11:58:50.961Z,20
2018-11-12T11:59:31.302Z,20
2018-11-12T12:00:12.476Z,25
2018-11-12T12:00:52.557Z,25
2018-11-12T12:01:33.657Z,25
2018-11-12T12:02:13.875Z,25
2018-11-12T12:02:55.612Z,25
2018-11-12T12:03:35.326Z,25
2018-11-12T12:04:15.999Z,25
2018-11-12T12:04:57.480Z,25
2018-11-12T12:05:37.168Z,25
2018-11-12T12:06:17.723Z,25
2018-11-12T12:06:58.458Z,25
2018-11-12T12:07:38.861Z,25
2018-11-12T12:08:19.445Z,25
2018-11-12T12:08:59.991Z,25
2018-11-12T12:09:40.582Z,30
2018-11-12T12:10:21.311Z,30
2018-11-12T12:11:02.173Z,35
2018-11-12T12:11:42.715Z,35
2018-11-12T12:12:23.343Z,30
2018-11-12T12:13:04.109Z,30
2018-11-12T12:13:45.715Z,35
2018-11-12T12:14:25.489Z,35
2018-11-12T12:15:05.984Z,35
2018-11-12T12:15:47.055Z,35
2018-11-12T12:16:28.029Z,30
2018-11-12T12:17:08.519Z,30
2018-11-12T12:17:49.065Z,30
2018-11-12T12:18:29.703Z,30
2018-11-12T12:19:10.176Z,30
2018-11-12T12:19:50.786Z,30
2018-11-12T12:20:31.366Z,30
2018-11-12T12:21:12.016Z,30
2018-11-12T12:21:52.668Z,30
2018-11-12T12:22:33.323Z,30
2018-11-12T12:23:14.064Z,30
2018-11-12T12:23:55.134Z,30
2018-11-12T12:24:35.708Z,35
2018-11-12T12:25:16.118Z,35
2018-11-12T12:25:56.478Z,35
2018-11-12T12:26:37.185Z,35
2018-11-12T12:27:17.554Z,30
2018-11-12T12:27:58.073Z,30
2018-11-12T12:28:39.478Z,25
2018-11-12T12:29:18.979Z,25